Time;durP1;ratioP1;P1;durP2;ratioP2;P2;SDS_P1;SDS_P2;PMS_P1;PMS_P2;Temp;Humidity;BMP_temperature;BMP_pressure;BME280_temperature;BME280_humidity;BME280_pressure;Samples;Min_cycle;Max_cycle;Signal;HPM_P1;HPM_P2
2023/12/18 00:00:35;;;;;;;;;19.50;16.50;;;;;-143.90;100.00;77066.41;4947548;28;102165;-71
2023/12/18 00:03:02;;;;;;;;;20.00;18.50;;;;;-143.90;100.00;77072.59;4943540;28;104015;-73
2023/12/18 00:05:28;;;;;;;;;21.25;17.00;;;;;-143.90;100.00;77070.53;4944078;28;102680;-71
2023/12/18 00:07:55;;;;;;;;;22.50;16.75;;;;;-143.90;100.00;77066.41;4932751;28;102278;-71
2023/12/18 00:10:22;;;;;;;;;21.50;17.00;;;;;-143.90;100.00;77074.69;4945550;28;101998;-72
2023/12/18 00:12:49;;;;;;;;;12.50;12.00;;;;;-143.90;100.00;77072.59;4940107;28;104126;-72
2023/12/18 00:15:15;;;;;;;;;19.25;12.75;;;;;-143.90;100.00;77070.53;4950167;28;103618;-71
2023/12/18 00:17:42;;;;;;;;;17.00;15.75;;;;;-143.90;100.00;77070.53;4949410;28;102338;-71
2023/12/18 00:20:10;;;;;;;;;18.75;16.00;;;;;-143.90;100.00;77078.81;4945082;28;102580;-71
2023/12/18 00:22:36;;;;;;;;;19.25;15.50;;;;;-143.90;100.00;77070.53;4943431;28;104253;-71
2023/12/18 00:25:03;;;;;;;;;18.75;16.25;;;;;-143.90;100.00;77070.53;4937273;28;102517;-72
2023/12/18 00:27:30;;;;;;;;;20.00;17.25;;;;;-143.90;100.00;77074.69;4942904;28;102343;-71
2023/12/18 00:29:56;;;;;;;;;18.50;15.00;;;;;-143.90;100.00;77078.81;4957591;28;103373;-71
2023/12/18 00:32:23;;;;;;;;;16.75;15.25;;;;;-143.90;100.00;77082.94;4946694;28;104131;-72
2023/12/18 00:34:50;;;;;;;;;20.00;14.00;;;;;-143.90;100.00;77080.88;4947965;28;103083;-71
2023/12/18 00:37:18;;;;;;;;;14.75;12.00;;;;;-143.90;100.00;77082.94;4949068;28;103823;-72
2023/12/18 00:39:45;;;;;;;;;15.75;15.00;;;;;-143.90;100.00;77087.09;4950633;28;102480;-72
2023/12/18 00:42:12;;;;;;;;;15.25;14.00;;;;;-143.90;100.00;77087.09;4947340;28;108987;-71
2023/12/18 00:44:38;;;;;;;;;15.75;12.00;;;;;-143.90;100.00;77087.09;4949225;28;102598;-71
2023/12/18 00:47:05;;;;;;;;;16.00;13.00;;;;;-143.90;100.00;77082.94;4945267;28;102340;-72
2023/12/18 00:49:32;;;;;;;;;21.25;16.75;;;;;-143.90;100.00;77082.94;4944097;28;102018;-72
2023/12/18 00:52:00;;;;;;;;;23.00;19.25;;;;;-143.90;100.00;77093.28;4947170;28;104000;-72
2023/12/18 00:54:26;;;;;;;;;21.25;17.50;;;;;-143.90;100.00;77087.09;4943416;28;102460;-72
2023/12/18 00:56:53;;;;;;;;;29.00;21.75;;;;;-143.90;100.00;77091.22;4935851;28;102001;-71
2023/12/18 00:59:20;;;;;;;;;24.00;22.25;;;;;-143.90;100.00;77080.88;4942990;28;102127;-72
2023/12/18 01:01:47;;;;;;;;;23.00;20.50;;;;;-143.90;100.00;77085.03;4943506;28;105605;-71
2023/12/18 01:04:14;;;;;;;;;23.75;19.25;;;;;-143.90;100.00;77089.16;4941632;28;102044;-72
2023/12/18 01:06:41;;;;;;;;;26.75;19.25;;;;;-143.90;100.00;77091.22;4945531;28;103653;-71
2023/12/18 01:09:08;;;;;;;;;19.50;18.75;;;;;-143.90;100.00;77087.09;4944922;28;107580;-72
2023/12/18 01:11:35;;;;;;;;;20.25;16.75;;;;;-143.90;100.00;77087.09;4949955;28;103974;-71
2023/12/18 01:14:02;;;;;;;;;21.00;17.00;;;;;-143.90;100.00;77078.81;4944171;28;102257;-71
2023/12/18 01:16:29;;;;;;;;;19.50;16.00;;;;;-143.90;100.00;77078.81;4946434;28;102438;-71
2023/12/18 01:18:55;;;;;;;;;15.25;13.50;;;;;-143.90;100.00;77072.59;4950273;28;102306;-71
2023/12/18 01:21:22;;;;;;;;;16.00;13.00;;;;;-143.90;100.00;77074.69;4947343;28;104014;-70
2023/12/18 01:23:49;;;;;;;;;17.00;15.75;;;;;-143.90;100.00;77076.75;4947484;28;102273;-71
2023/12/18 01:26:15;;;;;;;;;16.75;12.75;;;;;-143.90;100.00;77068.47;4940379;28;102047;-71
2023/12/18 01:28:43;;;;;;;;;15.75;12.75;;;;;-143.90;100.00;77072.59;4943748;28;102130;-71
2023/12/18 01:31:22;;;;;;;;;11.50;8.50;;;;;-143.90;100.00;77074.69;4946929;28;104047;-71
2023/12/18 01:33:52;;;;;;;;;14.50;12.00;;;;;-143.90;100.00;77072.59;4942940;28;102340;-72
2023/12/18 01:36:19;;;;;;;;;15.00;13.00;;;;;-143.90;100.00;77068.47;4948213;28;102268;-72
2023/12/18 01:38:46;;;;;;;;;16.50;14.50;;;;;-143.90;100.00;77062.25;4946570;28;102020;-71
2023/12/18 01:41:13;;;;;;;;;14.25;13.25;;;;;-143.90;100.00;77054.00;4954260;28;109060;-72
2023/12/18 01:43:39;;;;;;;;;15.00;11.25;;;;;-143.90;100.00;77062.25;4945819;28;102353;-72
2023/12/18 01:46:06;;;;;;;;;15.25;12.25;;;;;-143.90;100.00;77054.00;4946145;28;102208;-72
2023/12/18 01:48:33;;;;;;;;;18.00;12.25;;;;;-143.90;100.00;77054.00;4947845;28;102617;-71
2023/12/18 01:51:02;;;;;;;;;16.25;14.00;;;;;-143.90;100.00;77056.06;4944430;28;104200;-71
2023/12/18 01:53:42;;;;;;;;;17.75;12.50;;;;;-143.90;100.00;77051.94;4947041;28;102613;-71
2023/12/18 01:56:11;;;;;;;;;15.25;14.00;;;;;-143.90;100.00;77049.84;4949961;28;102137;-71
2023/12/18 01:58:39;;;;;;;;;17.25;15.25;;;;;-143.90;100.00;77049.84;4933910;28;107223;-71
2023/12/18 02:01:08;;;;;;;;;14.75;13.00;;;;;-143.90;100.00;77058.13;4942883;28;103901;-71
2023/12/18 02:03:35;;;;;;;;;12.75;12.75;;;;;-143.90;100.00;77047.78;4939088;28;102098;-73
2023/12/18 02:06:04;;;;;;;;;14.75;11.00;;;;;-143.90;100.00;77045.72;4926045;28;102935;-73
2023/12/18 02:08:34;;;;;;;;;14.50;11.50;;;;;-143.90;100.00;77045.72;4943942;28;102253;-71
2023/12/18 02:11:02;;;;;;;;;17.00;13.25;;;;;-143.90;100.00;77045.72;4944526;28;105168;-71
2023/12/18 02:13:29;;;;;;;;;20.50;16.25;;;;;-143.90;100.00;77041.59;4949345;28;102666;-71
2023/12/18 02:15:57;;;;;;;;;19.00;13.25;;;;;-143.90;100.00;77035.38;4944424;28;102299;-71
2023/12/18 02:18:24;;;;;;;;;12.00;10.00;;;;;-143.90;100.00;77035.38;4949810;28;102112;-71
2023/12/18 02:20:51;;;;;;;;;10.75;9.50;;;;;-143.90;100.00;77037.44;4932857;28;104014;-71
2023/12/18 02:23:17;;;;;;;;;15.50;12.50;;;;;-143.90;100.00;77037.44;4945590;28;102055;-71
2023/12/18 02:25:44;;;;;;;;;14.75;11.00;;;;;-143.90;100.00;77031.25;4948428;28;102781;-71
2023/12/18 02:28:11;;;;;;;;;12.25;11.50;;;;;-143.90;100.00;77029.19;4943918;28;102490;-71
2023/12/18 02:30:38;;;;;;;;;12.75;11.25;;;;;-143.90;100.00;77025.03;4945798;28;104156;-70
2023/12/18 02:33:05;;;;;;;;;10.50;9.00;;;;;-143.90;100.00;77025.03;4944573;28;102434;-71
2023/12/18 02:35:32;;;;;;;;;11.75;10.00;;;;;-143.90;100.00;77033.31;4936056;28;102335;-72
2023/12/18 02:37:58;;;;;;;;;13.25;11.00;;;;;-143.90;100.00;77025.03;4940717;28;102085;-71
2023/12/18 02:40:26;;;;;;;;;17.25;14.25;;;;;-143.90;100.00;77022.97;4941122;28;104004;-71
2023/12/18 02:42:52;;;;;;;;;10.75;10.50;;;;;-143.90;100.00;77018.84;4947503;28;102008;-71
2023/12/18 02:45:19;;;;;;;;;11.50;10.25;;;;;-143.90;100.00;77014.69;4943671;28;102137;-72
2023/12/18 02:47:46;;;;;;;;;18.50;13.75;;;;;-143.90;100.00;77010.56;4941650;28;102059;-71
2023/12/18 02:50:14;;;;;;;;;19.25;17.50;;;;;-143.90;100.00;77016.75;4942376;28;109641;-71
2023/12/18 02:52:41;;;;;;;;;11.50;10.50;;;;;-143.90;100.00;77016.75;4943813;28;102007;-70
2023/12/18 02:55:09;;;;;;;;;12.00;11.00;;;;;-143.90;100.00;77008.50;4949366;28;102069;-71
2023/12/18 02:57:38;;;;;;;;;12.00;11.25;;;;;-143.90;100.00;77008.50;4950424;28;102002;-71
2023/12/18 03:00:07;;;;;;;;;12.00;11.00;;;;;-143.90;100.00;77012.63;4943989;28;103006;-72
2023/12/18 03:02:34;;;;;;;;;15.50;11.50;;;;;-143.90;100.00;77008.50;4947930;28;102510;-71
2023/12/18 03:05:00;;;;;;;;;12.50;11.50;;;;;-143.90;100.00;77010.56;4946929;28;102984;-71
2023/12/18 03:07:27;;;;;;;;;10.25;9.75;;;;;-143.90;100.00;77012.63;4946542;28;102009;-71
2023/12/18 03:09:54;;;;;;;;;8.50;7.50;;;;;-143.90;100.00;77008.50;4940238;28;104152;-71
2023/12/18 03:12:20;;;;;;;;;16.75;11.25;;;;;-143.90;100.00;77010.56;4947102;28;102061;-69
2023/12/18 03:14:47;;;;;;;;;12.00;10.00;;;;;-143.90;100.00;77012.63;4948630;28;103941;-71
2023/12/18 03:17:13;;;;;;;;;11.25;10.75;;;;;-143.90;100.00;77016.75;4944890;28;102268;-72
2023/12/18 03:19:40;;;;;;;;;8.25;6.75;;;;;-143.90;100.00;77008.50;4946200;28;104037;-71
2023/12/18 03:22:07;;;;;;;;;10.00;8.00;;;;;-143.90;100.00;77004.34;4924196;28;103789;-71
2023/12/18 03:24:33;;;;;;;;;12.00;10.00;;;;;-143.90;100.00;77004.34;4936814;28;103855;-71
2023/12/18 03:27:00;;;;;;;;;9.25;5.50;;;;;-143.90;100.00;77010.56;4940965;28;102440;-71
2023/12/18 03:29:26;;;;;;;;;10.50;9.25;;;;;-143.90;100.00;77004.34;4946400;28;104044;-71
2023/12/18 03:31:53;;;;;;;;;12.25;11.50;;;;;-143.90;100.00;77004.34;4944792;28;102209;-71
2023/12/18 03:34:20;;;;;;;;;10.00;9.50;;;;;-143.90;100.00;77006.41;4942079;28;101953;-71
2023/12/18 03:36:46;;;;;;;;;10.25;9.50;;;;;-143.90;100.00;77014.69;4950891;28;101987;-71
2023/12/18 03:39:13;;;;;;;;;9.50;9.00;;;;;-143.90;100.00;77010.56;4942284;28;108973;-72
2023/12/18 03:41:39;;;;;;;;;11.00;7.25;;;;;-143.90;100.00;77008.50;4930618;28;102738;-70
2023/12/18 03:44:06;;;;;;;;;8.25;7.00;;;;;-143.90;100.00;76998.16;4941921;28;103013;-71
2023/12/18 03:46:33;;;;;;;;;7.75;7.00;;;;;-143.90;100.00;76994.00;4947193;28;102043;-71
2023/12/18 03:48:59;;;;;;;;;12.75;9.25;;;;;-143.90;100.00;77000.22;4943226;28;104006;-71
2023/12/18 03:51:26;;;;;;;;;7.00;7.00;;;;;-143.90;100.00;76998.16;4938833;28;103176;-70
2023/12/18 03:53:53;;;;;;;;;10.75;9.50;;;;;-143.90;100.00;76996.09;4948637;28;103805;-71
2023/12/18 03:56:19;;;;;;;;;8.25;7.00;;;;;-143.90;100.00;76994.00;4936081;28;102432;-71
2023/12/18 03:58:46;;;;;;;;;11.75;9.00;;;;;-143.90;100.00;77002.28;4948242;28;104126;-71
2023/12/18 04:01:13;;;;;;;;;6.00;6.00;;;;;-143.90;100.00;77004.34;4945914;28;102657;-72
2023/12/18 04:03:39;;;;;;;;;10.50;8.00;;;;;-143.90;100.00;77008.50;4945187;28;101895;-71
2023/12/18 04:06:09;;;;;;;;;11.00;10.50;;;;;-143.90;100.00;77002.28;4946643;28;101983;-72
2023/12/18 04:08:37;;;;;;;;;12.25;10.75;;;;;-143.90;100.00;77004.34;4942655;28;104090;-72
2023/12/18 04:11:03;;;;;;;;;12.25;11.00;;;;;-143.90;100.00;77012.63;4940416;28;102346;-72
2023/12/18 04:13:30;;;;;;;;;10.00;8.25;;;;;-143.90;100.00;77012.63;4943822;28;102280;-71
2023/12/18 04:15:56;;;;;;;;;7.50;7.00;;;;;-143.90;100.00;77012.63;4947255;28;102885;-72
2023/12/18 04:18:26;;;;;;;;;11.00;8.25;;;;;-143.90;100.00;77008.50;4944886;28;105094;-71
2023/12/18 04:20:53;;;;;;;;;16.00;11.75;;;;;-143.90;100.00;77016.75;4941968;28;102538;-72
2023/12/18 04:23:19;;;;;;;;;6.25;6.00;;;;;-143.90;100.00;77012.63;4946999;28;101934;-71
2023/12/18 04:25:46;;;;;;;;;9.25;7.50;;;;;-143.90;100.00;77016.75;4941906;28;102084;-71
2023/12/18 04:28:12;;;;;;;;;6.00;6.00;;;;;-143.90;100.00;77020.91;4937653;28;104001;-72
2023/12/18 04:30:39;;;;;;;;;10.75;9.50;;;;;-143.90;100.00;77020.91;4946803;28;102446;-72
2023/12/18 04:33:06;;;;;;;;;10.25;9.00;;;;;-143.90;100.00;77020.91;4955208;28;102636;-71
2023/12/18 04:35:32;;;;;;;;;8.00;7.75;;;;;-143.90;100.00;77025.03;4945625;28;102710;-71
2023/12/18 04:37:59;;;;;;;;;11.75;10.50;;;;;-143.90;100.00;77025.03;4945656;28;104008;-71
2023/12/18 04:40:26;;;;;;;;;11.00;9.50;;;;;-143.90;100.00;77027.09;4941196;28;103336;-71
2023/12/18 04:42:54;;;;;;;;;11.75;8.50;;;;;-143.90;100.00;77029.19;4931503;28;103416;-72
2023/12/18 04:45:21;;;;;;;;;13.75;12.50;;;;;-143.90;100.00;77025.03;4943869;28;102335;-72
2023/12/18 04:47:47;;;;;;;;;13.50;12.00;;;;;-143.90;100.00;77025.03;4947151;28;104038;-71
2023/12/18 04:50:14;;;;;;;;;17.00;15.00;;;;;-143.90;100.00;77027.09;4948679;28;104296;-72
2023/12/18 04:52:41;;;;;;;;;12.00;10.00;;;;;-143.90;100.00;77033.31;4945324;28;102090;-72
2023/12/18 04:55:08;;;;;;;;;10.75;9.50;;;;;-143.90;100.00;77033.31;4947863;28;101907;-71
2023/12/18 04:57:36;;;;;;;;;15.00;11.00;;;;;-143.90;100.00;77035.38;4942229;28;104441;-71
2023/12/18 05:00:06;;;;;;;;;12.75;11.00;;;;;-143.90;100.00;77031.25;4943037;28;102500;-71
2023/12/18 05:02:33;;;;;;;;;17.50;13.25;;;;;-143.90;100.00;77041.59;4945988;28;107295;-71
2023/12/18 05:04:59;;;;;;;;;16.50;13.75;;;;;-143.90;100.00;77041.59;4944204;28;102606;-71
2023/12/18 05:07:27;;;;;;;;;15.00;12.00;;;;;-143.90;100.00;77039.50;4949063;28;105165;-72
2023/12/18 05:09:53;;;;;;;;;16.00;12.50;;;;;-143.90;100.00;77037.44;4946639;28;102269;-70
2023/12/18 05:12:20;;;;;;;;;14.00;12.00;;;;;-143.90;100.00;77047.78;4949316;28;101909;-70
2023/12/18 05:14:46;;;;;;;;;16.75;12.50;;;;;-143.90;100.00;77045.72;4941450;28;103696;-71
2023/12/18 05:17:13;;;;;;;;;14.50;11.00;;;;;-143.90;100.00;77043.66;4941585;28;108744;-72
2023/12/18 05:19:40;;;;;;;;;14.75;10.00;;;;;-143.90;100.00;77045.72;4949340;28;102522;-71
2023/12/18 05:22:06;;;;;;;;;15.25;12.00;;;;;-143.90;100.00;77054.00;4946620;28;102511;-71
2023/12/18 05:24:33;;;;;;;;;16.00;15.50;;;;;-143.90;100.00;77047.78;4948617;28;102234;-71
2023/12/18 05:27:00;;;;;;;;;21.25;16.00;;;;;-143.90;100.00;77051.94;4948120;28;104127;-71
2023/12/18 05:29:26;;;;;;;;;15.50;14.75;;;;;-143.90;100.00;77049.84;4945269;28;102029;-71
2023/12/18 05:31:53;;;;;;;;;12.25;10.50;;;;;-143.90;100.00;77047.78;4938146;28;102694;-70
2023/12/18 05:34:19;;;;;;;;;11.75;8.25;;;;;-143.90;100.00;77049.84;4947832;28;102192;-71
2023/12/18 05:36:46;;;;;;;;;9.25;8.25;;;;;-143.90;100.00;77054.00;4942896;28;103980;-71
2023/12/18 05:39:13;;;;;;;;;14.75;11.00;;;;;-143.90;100.00;77054.00;4943891;28;103365;-71
2023/12/18 05:41:40;;;;;;;;;12.50;10.75;;;;;-143.90;100.00;77062.25;4946515;28;102172;-71
2023/12/18 05:44:06;;;;;;;;;7.50;6.50;;;;;-143.90;100.00;77068.47;4944556;28;102023;-70
2023/12/18 05:46:33;;;;;;;;;12.50;12.00;;;;;-143.90;100.00;77074.69;4945690;28;104216;-71
2023/12/18 05:51:39;;;;;;;;;15.50;14.00;;;;;-143.90;100.00;77078.81;4389437;28;104191;-75
2023/12/18 05:54:05;;;;;;;;;18.75;15.50;;;;;-143.90;100.00;77078.81;4908379;28;103161;-74
2023/12/18 05:56:32;;;;;;;;;21.50;18.50;;;;;-143.90;100.00;77078.81;4914779;28;103276;-74
2023/12/18 05:58:59;;;;;;;;;19.75;16.00;;;;;-143.90;100.00;77087.09;4914718;28;103212;-75
2023/12/18 06:01:26;;;;;;;;;15.25;11.25;;;;;-143.90;100.00;77089.16;4916393;28;102190;-74
2023/12/18 06:03:52;;;;;;;;;12.25;11.50;;;;;-143.90;100.00;77091.22;4914981;28;102023;-75
2023/12/18 06:06:19;;;;;;;;;13.00;12.00;;;;;-143.90;100.00;77091.22;4914647;28;104019;-75
2023/12/18 06:08:46;;;;;;;;;12.75;12.25;;;;;-143.90;100.00;77097.44;4906624;28;102110;-75
2023/12/18 06:11:15;;;;;;;;;11.75;11.75;;;;;-143.90;100.00;77101.56;4911390;28;103527;-75
2023/12/18 06:13:42;;;;;;;;;11.00;10.00;;;;;-143.90;100.00;77103.63;4910011;28;102505;-73
2023/12/18 06:16:09;;;;;;;;;11.50;10.25;;;;;-143.90;100.00;77103.63;4912239;28;104113;-74
2023/12/18 06:18:36;;;;;;;;;14.75;10.00;;;;;-143.90;100.00;77105.69;4909827;28;102364;-73
2023/12/18 06:21:04;;;;;;;;;11.00;11.00;;;;;-143.90;100.00;77107.78;4912639;28;102001;-74
2023/12/18 06:23:30;;;;;;;;;15.50;13.25;;;;;-143.90;100.00;77111.91;4907634;28;103278;-74
2023/12/18 06:25:57;;;;;;;;;10.00;9.00;;;;;-143.90;100.00;77109.84;4917344;28;104249;-74
2023/12/18 06:28:27;;;;;;;;;10.75;10.00;;;;;-143.90;100.00;77107.78;4913528;28;102467;-74
2023/12/18 06:30:54;;;;;;;;;14.00;11.00;;;;;-143.90;100.00;77103.63;4895983;28;102109;-74
2023/12/18 06:33:21;;;;;;;;;14.25;11.00;;;;;-143.90;100.00;77101.56;4916527;28;102477;-74
2023/12/18 06:35:48;;;;;;;;;16.25;12.00;;;;;-143.90;100.00;77095.38;4914671;28;103998;-74
2023/12/18 06:38:14;;;;;;;;;22.75;15.00;;;;;-143.90;100.00;77091.22;4917907;28;101980;-74
2023/12/18 06:40:41;;;;;;;;;15.25;12.00;;;;;-143.90;100.00;77089.16;4916142;28;101906;-75
2023/12/18 06:43:08;;;;;;;;;17.00;14.25;;;;;-143.90;100.00;77089.16;4912201;28;102296;-75
2023/12/18 06:45:34;;;;;;;;;24.25;15.75;;;;;-143.90;100.00;77091.22;4916102;28;104411;-75
2023/12/18 06:48:02;;;;;;;;;13.50;13.00;;;;;-143.90;100.00;77085.03;4897007;28;102149;-75
2023/12/18 06:50:30;;;;;;;;;16.50;15.75;;;;;-143.90;100.00;77080.88;4916680;28;102350;-75
2023/12/18 06:52:57;;;;;;;;;14.25;11.50;;;;;-143.90;100.00;77087.09;4916489;28;102355;-75
2023/12/18 06:55:23;;;;;;;;;16.75;14.50;;;;;-143.90;100.00;77085.03;4916003;28;104268;-75
2023/12/18 06:57:50;;;;;;;;;19.50;16.25;;;;;-143.90;100.00;77085.03;4913325;28;102351;-75
2023/12/18 07:00:17;;;;;;;;;15.75;14.00;;;;;-143.90;100.00;77076.75;4916840;28;102333;-75
2023/12/18 07:02:45;;;;;;;;;20.25;16.25;;;;;-143.90;100.00;77076.75;4913545;28;101996;-74
2023/12/18 07:05:16;;;;;;;;;18.75;14.75;;;;;-143.90;100.00;77072.59;4909185;28;104023;-74
2023/12/18 07:07:42;;;;;;;;;15.50;11.50;;;;;-143.90;100.00;77078.81;4913546;28;102162;-74
2023/12/18 07:10:09;;;;;;;;;18.25;17.25;;;;;-143.90;100.00;77085.03;4915707;28;101970;-75
2023/12/18 07:12:36;;;;;;;;;30.00;21.25;;;;;-143.90;100.00;77078.81;4897040;28;102035;-75
2023/12/18 07:15:03;;;;;;;;;26.00;23.00;;;;;-143.90;100.00;77087.09;4914173;28;103356;-75
2023/12/18 07:17:29;;;;;;;;;27.00;24.00;;;;;-143.90;100.00;77074.69;4913164;28;102888;-74
2023/12/18 07:19:56;;;;;;;;;41.25;29.75;;;;;-143.90;100.00;77074.69;4902255;28;102010;-75
2023/12/18 07:22:23;;;;;;;;;34.25;24.75;;;;;-143.90;100.00;77062.25;4916688;28;102082;-74
2023/12/18 07:24:50;;;;;;;;;29.75;24.75;;;;;-143.90;100.00;77064.34;4914178;28;104221;-74
2023/12/18 07:27:16;;;;;;;;;24.25;20.00;;;;;-143.90;100.00;77068.47;4912815;28;101933;-75
2023/12/18 07:29:43;;;;;;;;;19.25;17.50;;;;;-143.90;100.00;77066.41;4912200;28;102202;-74
2023/12/18 07:32:09;;;;;;;;;21.50;19.00;;;;;-143.90;100.00;77060.19;4918522;28;102107;-76
2023/12/18 07:34:36;;;;;;;;;21.75;18.75;;;;;-143.90;100.00;77058.13;4910088;28;104220;-74
2023/12/18 07:37:03;;;;;;;;;21.75;17.50;;;;;-143.90;100.00;77051.94;4916366;28;102124;-75
2023/12/18 07:39:31;;;;;;;;;19.25;14.00;;;;;-143.90;100.00;77049.84;4914260;28;101910;-75
2023/12/18 07:41:57;;;;;;;;;19.00;16.75;;;;;-143.90;100.00;77049.84;4914248;28;104345;-76
2023/12/18 07:44:24;;;;;;;;;22.00;17.00;;;;;-143.90;100.00;77037.44;4913718;28;104231;-75
2023/12/18 07:46:52;;;;;;;;;25.25;19.50;;;;;-143.90;100.00;77029.19;4912336;28;102411;-75
2023/12/18 07:49:18;;;;;;;;;28.50;21.00;;;;;-143.90;100.00;77025.03;4913637;28;102020;-74
2023/12/18 07:51:45;;;;;;;;;25.50;20.00;;;;;-143.90;100.00;77025.03;4913767;28;102141;-75
2023/12/18 07:54:12;;;;;;;;;23.25;16.75;;;;;-143.90;100.00;77008.50;4914931;28;104167;-75
2023/12/18 07:56:39;;;;;;;;;14.75;11.50;;;;;-143.90;100.00;77008.50;4916097;28;102372;-75
2023/12/18 07:59:07;;;;;;;;;15.25;12.00;;;;;-143.90;100.00;76994.00;4914842;28;103100;-75
2023/12/18 08:01:34;;;;;;;;;23.75;18.25;;;;;-143.90;100.00;76991.94;4918485;28;102043;-74
2023/12/18 08:04:01;;;;;;;;;25.75;16.50;;;;;-143.90;100.00;76979.53;4915360;28;104235;-75
2023/12/18 08:06:27;;;;;;;;;20.25;17.00;;;;;-143.90;100.00;76973.31;4909496;28;107835;-75
2023/12/18 08:08:54;;;;;;;;;16.75;14.25;;;;;-143.90;100.00;76958.84;4908458;28;102476;-76
2023/12/18 08:11:21;;;;;;;;;14.25;13.25;;;;;-143.90;100.00;76950.56;4916783;28;102181;-75
2023/12/18 08:13:48;;;;;;;;;17.25;14.00;;;;;-143.90;100.00;76931.97;4915493;28;104048;-76
2023/12/18 08:16:15;;;;;;;;;14.75;14.00;;;;;-143.90;100.00;76921.63;4916147;28;102356;-75
2023/12/18 08:18:42;;;;;;;;;17.00;15.00;;;;;-143.90;100.00;76909.22;4909352;28;101968;-75
2023/12/18 08:21:14;;;;;;;;;18.50;18.00;;;;;-143.90;100.00;76896.81;4910401;28;102181;-75
2023/12/18 08:23:41;;;;;;;;;15.75;13.00;;;;;-143.90;100.00;76890.59;4902618;28;104096;-75
2023/12/18 08:26:11;;;;;;;;;12.25;10.50;;;;;-143.90;100.00;76880.25;4916735;28;102148;-73
2023/12/18 08:28:42;;;;;;;;;12.25;12.25;;;;;-143.90;100.00;76867.84;4907962;28;102340;-73
2023/12/18 08:31:09;;;;;;;;;11.75;10.00;;;;;-143.90;100.00;76859.56;4912316;28;103616;-74
2023/12/18 08:33:35;;;;;;;;;12.75;12.00;;;;;-143.90;100.00;76849.22;4913621;28;104296;-74
2023/12/18 08:36:03;;;;;;;;;13.75;10.75;;;;;-143.90;100.00;76843.03;4907614;28;102259;-74
2023/12/18 08:38:30;;;;;;;;;13.00;12.25;;;;;-143.90;100.00;76843.03;4912711;28;102084;-74
2023/12/18 08:40:56;;;;;;;;;13.00;12.00;;;;;-143.90;100.00;76828.53;4915731;28;102171;-74
2023/12/18 08:43:23;;;;;;;;;11.50;11.00;;;;;-143.90;100.00;76822.34;4916450;28;104082;-74
2023/12/18 08:45:50;;;;;;;;;17.50;14.25;;;;;-143.90;100.00;76807.88;4916566;28;102258;-75
2023/12/18 08:48:16;;;;;;;;;13.75;13.50;;;;;-143.90;100.00;76801.66;4916494;28;101952;-74
2023/12/18 08:50:43;;;;;;;;;14.00;11.50;;;;;-143.90;100.00;76785.13;4904209;28;102259;-74
2023/12/18 08:53:10;;;;;;;;;14.75;12.75;;;;;-143.90;100.00;76770.63;4910859;28;104160;-75
2023/12/18 08:55:39;;;;;;;;;18.00;12.75;;;;;-143.90;100.00;76752.03;4914823;28;102559;-74
2023/12/18 08:58:08;;;;;;;;;13.00;12.50;;;;;-143.90;100.00;76739.63;4915479;28;103053;-75
2023/12/18 09:00:35;;;;;;;;;14.25;11.00;;;;;-143.90;100.00;76735.47;4920207;28;106360;-74
2023/12/18 09:03:03;;;;;;;;;13.50;13.50;;;;;-143.90;100.00;76723.06;4916778;28;103964;-74
2023/12/18 09:05:31;;;;;;;;;17.00;15.00;;;;;-143.90;100.00;76714.78;4914689;28;102437;-76
2023/12/18 09:07:58;;;;;;;;;13.50;12.25;;;;;-143.90;100.00;76710.66;4912070;28;102367;-74
2023/12/18 09:10:24;;;;;;;;;14.00;12.75;;;;;-143.90;100.00;76694.13;4916531;28;102367;-74
2023/12/18 09:12:55;;;;;;;;;16.00;13.25;;;;;-143.90;100.00;76681.72;4918258;28;108961;-74
2023/12/18 09:15:21;;;;;;;;;14.00;12.75;;;;;-143.90;100.00;76661.03;4916966;28;101879;-75
2023/12/18 09:17:48;;;;;;;;;13.50;10.00;;;;;-143.90;100.00;76656.88;4908570;28;102017;-75
2023/12/18 09:20:15;;;;;;;;;12.25;11.75;;;;;-143.90;100.00;76648.63;4918118;28;104233;-76
2023/12/18 09:22:42;;;;;;;;;12.50;11.00;;;;;-143.90;100.00;76640.34;4913718;28;104434;-76
2023/12/18 09:25:09;;;;;;;;;9.00;9.00;;;;;-143.90;100.00;76625.88;4914461;28;101966;-76
2023/12/18 09:27:36;;;;;;;;;14.00;9.25;;;;;-143.90;100.00;76603.13;4907708;28;102390;-74
2023/12/18 09:30:05;;;;;;;;;18.50;13.50;;;;;-143.90;99.75;76580.38;4915656;28;102028;-74
2023/12/18 09:32:32;;;;;;;;;14.00;12.00;;;;;-143.90;99.28;76580.38;4910099;28;103186;-76
2023/12/18 09:34:59;;;;;;;;;13.75;13.25;;;;;-143.90;98.88;76574.16;4916028;28;102669;-76
2023/12/18 09:37:27;;;;;;;;;11.50;10.75;;;;;-143.90;98.34;76565.88;4910525;28;101966;-76
2023/12/18 09:39:54;;;;;;;;;12.50;11.50;;;;;-143.90;98.34;76545.22;4914211;28;102539;-75
2023/12/18 09:42:23;;;;;;;;;17.00;13.50;;;;;-143.90;96.79;76541.06;4908811;28;108752;-75
2023/12/18 09:44:49;;;;;;;;;12.25;12.25;;;;;-143.90;97.10;76528.66;4916798;28;102542;-76
2023/12/18 09:47:17;;;;;;;;;9.00;8.00;;;;;-143.90;98.11;76530.72;4912903;28;101912;-76
2023/12/18 09:49:44;;;;;;;;;14.25;12.25;;;;;-143.90;97.01;76520.38;4899495;28;102477;-74
2023/12/18 09:52:11;;;;;;;;;22.25;18.50;;;;;-143.90;96.90;76507.97;4917199;28;103647;-74
2023/12/18 09:54:42;;;;;;;;;66.25;48.75;;;;;-143.90;95.70;76499.72;4913020;28;102342;-74
2023/12/18 09:57:11;;;;;;;;;47.25;31.00;;;;;-143.90;95.50;76493.50;4915502;28;102209;-75
2023/12/18 09:59:38;;;;;;;;;32.50;22.00;;;;;-143.90;95.25;76483.16;4917140;28;102137;-75
2023/12/18 10:02:08;;;;;;;;;22.75;18.75;;;;;-143.90;95.21;76472.81;4918232;28;104062;-75
2023/12/18 10:04:34;;;;;;;;;14.00;12.50;;;;;-143.90;94.54;76454.22;4900546;28;102349;-75
2023/12/18 10:07:01;;;;;;;;;16.75;13.50;;;;;-143.90;94.04;76443.88;4917540;28;102155;-75
2023/12/18 10:09:34;;;;;;;;;13.00;11.00;;;;;-143.90;92.94;76427.31;4912635;28;102472;-73
2023/12/18 10:12:05;;;;;;;;;10.25;10.00;;;;;-143.90;93.28;76421.13;4915139;28;104223;-74
2023/12/18 10:14:33;;;;;;;;;15.50;14.50;;;;;-143.90;94.12;76433.53;4918892;28;101945;-73
2023/12/18 10:17:00;;;;;;;;;14.75;14.00;;;;;-143.90;93.47;76423.19;4916936;28;104280;-74
2023/12/18 10:19:28;;;;;;;;;12.50;10.00;;;;;-143.90;92.18;76419.06;4915499;28;102060;-75
2023/12/18 10:21:54;;;;;;;;;15.00;14.25;;;;;-143.90;92.47;76414.91;4909360;28;104084;-74
2023/12/18 10:24:21;;;;;;;;;18.25;13.00;;;;;-143.90;91.49;76396.31;4911476;28;101851;-74
2023/12/18 10:26:48;;;;;;;;;13.75;13.00;;;;;-143.90;91.09;76400.44;4915773;28;102326;-74
2023/12/18 10:29:15;;;;;;;;;15.25;14.50;;;;;-143.90;91.44;76396.31;4908732;28;102631;-74
2023/12/18 10:31:42;;;;;;;;;12.75;11.50;;;;;-143.90;90.64;76375.63;4915895;28;104197;-73
2023/12/18 10:34:09;;;;;;;;;11.75;10.50;;;;;-143.90;89.56;76371.50;4910735;28;102386;-74
2023/12/18 10:36:40;;;;;;;;;13.25;10.50;;;;;-143.90;90.71;76363.22;4898322;28;101968;-74
2023/12/18 10:39:09;;;;;;;;;9.50;7.75;;;;;-143.90;90.22;76346.69;4914938;28;102031;-74
2023/12/18 10:41:43;;;;;;;;;11.75;9.50;;;;;-143.90;89.10;76346.69;4908990;28;103922;-73
2023/12/18 10:44:11;;;;;;;;;7.00;6.50;;;;;-143.90;89.90;76332.19;4908955;28;103433;-74
2023/12/18 10:46:38;;;;;;;;;13.75;10.00;;;;;-143.90;89.18;76330.13;4914557;28;101891;-74
2023/12/18 10:49:07;;;;;;;;;10.00;8.00;;;;;-143.90;88.85;76309.44;4915068;28;102320;-74
2023/12/18 10:51:36;;;;;;;;;14.50;12.75;;;;;-143.90;87.94;76305.31;4911912;28;104034;-74